This is the latest recevied weather packets stored in our database for station/object DG9LAO-6. If no packets are shown the sender has not sent any weather packets the latest 10 day(s).
| Time | Temp. | Humidity | Pressure | Rain* | Wind** | Luminosity | Snow |
|---|---|---|---|---|---|---|---|
| 1777957749 | 6.11° C | 93% | 1011.4 hPa | 0 mm | - | - | - |
| 1777957149 | 6.11° C | 93% | 1011.4 hPa | 0 mm | - | - | - |
| 1777952348 | 5° C | 92% | 1011.5 hPa | 0 mm | - | - | - |
| 1777946350 | 5.56° C | 92% | 1011.7 hPa | 0 mm | - | - | - |
| 1777936149 | 6.67° C | 91% | 1012.5 hPa | 0 mm | - | - | - |
| 1777934949 | 6.67° C | 91% | 1012.5 hPa | 0 mm | - | - | - |
| 1777929553 | 7.78° C | 88% | 1014.9 hPa | 0 mm | - | - | - |
| 1777925353 | 8.33° C | 87% | 1014.9 hPa | 0 mm | - | - | - |
| 1777920552 | 10.56° C | 83% | 1014.4 hPa | 0 mm | - | - | - |
| 1777916352 | 11.67° C | 82% | 1014.4 hPa | 0 mm | - | - | - |
| 1777912152 | 12.22° C | 82% | 1012.6 hPa | 0 mm | - | - | - |
| 1777911552 | 12.78° C | 81% | 1012.6 hPa | 0 mm | - | - | - |
| 1777907951 | 13.33° C | 81% | 1013.2 hPa | 0 mm | - | - | - |
| 1777906151 | 13.33° C | 80% | 1013.4 hPa | 0 mm | - | - | - |
| 1777904951 | 13.33° C | 78% | 1013.3 hPa | 0 mm | - | - | - |
| 1777904351 | 13.89° C | 78% | 1013.3 hPa | 0 mm | - | - | - |
| 1777901950 | 13.89° C | 78% | 1014 hPa | 0 mm | - | - | - |
| 1777889948 | 13.89° C | 85% | 1014 hPa | 0 mm | - | - | - |
| 1777887552 | 13.89° C | 86% | 1013.5 hPa | 0 mm | - | - | - |
| 1777872549 | 10.56° C | 93% | 1009.8 hPa | 0 mm | - | - | - |
| 1777865948 | 10.56° C | 93% | 1009 hPa | 0 mm | - | - | - |
| 1777864748 | 10.56° C | 93% | 1008.8 hPa | 0 mm | - | - | - |
| 1777850950 | 13.33° C | 92% | 1007.5 hPa | 0 mm | - | - | - |
| 1777849749 | 13.33° C | 92% | 1008.2 hPa | 0 mm | - | - | - |
| 1777847949 | 13.89° C | 92% | 1007.8 hPa | 0 mm | - | - | - |
* Rain latest hour (hover to see other rain measurements)
** Current wind speed in m/s (hover to see current wind gust speed)